Norwegian Epic — C6XP7 — position and weather

sailwx.info

Track history (hours):
 
Tides and Currents Weather Stations Pressure Air Temp Water Temp Dewpoint Dewpoint Depression Visibility Wind Speed Wind Dir Waves Ship Positions

Norwegian Epic

Last reported at 2018-Feb-18 03:16 UTC. Time now 2018-Feb-22 08:48 UTC.
Position N 27°32' W 079°52'.

Length 329 m; draft 9.2 m.

MMSI: 311018500.

Date/timePositionNaut miles runAvg speedWind from/ knotsBaromVisibWave heightAir tempDewpointWater temp
2018-Feb-18 03:16N 27°32' W 079°52'817.9
2018-Feb-18 02:51N 27°38' W 079°56'616.1
2018-Feb-18 02:29N 27°43' W 079°59'817.4
2018-Feb-18 02:00N 27°50' W 080°04'45 3.1
2018-Feb-17 11:28N 28°25' W 080°38'12414.8
2018-Feb-17 03:05N 26°42' W 079°20'217.9
2018-Feb-17 02:58N 26°41' W 079°19'817.7
2018-Feb-17 02:30N 26°33' W 079°14'1018.4
2018-Feb-17 01:56N 26°26' W 079°06'1118.8
2018-Feb-17 01:20N 26°19' W 078°56'30 1.6
2018-Feb-16 06:54N 25°59' W 079°21'920.5
2018-Feb-16 06:29N 25°54' W 079°29'919.9
2018-Feb-16 06:00N 25°46' W 079°34'1121.4
2018-Feb-16 05:30N 25°35' W 079°36'  
2018-Feb-10 03:19N 26°34' W 079°29'721.4
2018-Feb-10 02:59N 26°27' W 079°28'1021.0
2018-Feb-10 02:30N 26°16' W 079°29'1021.3
2018-Feb-10 02:00N 26°06' W 079°32'1121.1
2018-Feb-10 01:30N 25°56' W 079°36'1121.3
2018-Feb-10 01:00N 25°46' W 079°38'1121.1
2018-Feb-10 00:30N 25°36' W 079°40'1221.2
2018-Feb-09 23:57N 25°24' W 079°40'49620.3
2018-Feb-08 23:30N 20°34' W 086°57'3 0.7
2018-Feb-08 19:30N 20°31' W 086°57'0 0.0
2018-Feb-08 15:00N 20°31' W 086°57'9 4.7
2018-Feb-08 13:00N 20°39' W 086°53'  
Track history (hours):
 
Tides and Currents Weather Stations Pressure Air Temp Water Temp Dewpoint Dewpoint Depression Visibility Wind Speed Wind Dir Waves Ship Positions

Norwegian Epic

Last reported at 2018-Feb-18 03:16 UTC. Time now 2018-Feb-22 08:49 UTC.
Position N 27°32' W 079°52'.

Length 329 m; draft 9.2 m.

MMSI: 311018500.

Date/timePositionNaut miles runAvg speedWind from/ knotsBaromVisibWave heightAir tempDewpointWater temp
2018-Feb-18 03:16N 27°32' W 079°52'817.9
2018-Feb-18 02:51N 27°38' W 079°56'616.1
2018-Feb-18 02:29N 27°43' W 079°59'817.4
2018-Feb-18 02:00N 27°50' W 080°04'45 3.1
2018-Feb-17 11:28N 28°25' W 080°38'12414.8
2018-Feb-17 03:05N 26°42' W 079°20'217.9
2018-Feb-17 02:58N 26°41' W 079°19'817.7
2018-Feb-17 02:30N 26°33' W 079°14'1018.4
2018-Feb-17 01:56N 26°26' W 079°06'1118.8
2018-Feb-17 01:20N 26°19' W 078°56'30 1.6
2018-Feb-16 06:54N 25°59' W 079°21'920.5
2018-Feb-16 06:29N 25°54' W 079°29'919.9
2018-Feb-16 06:00N 25°46' W 079°34'1121.4
2018-Feb-16 05:30N 25°35' W 079°36'  
2018-Feb-10 03:19N 26°34' W 079°29'721.4
2018-Feb-10 02:59N 26°27' W 079°28'1021.0
2018-Feb-10 02:30N 26°16' W 079°29'1021.3
2018-Feb-10 02:00N 26°06' W 079°32'1121.1
2018-Feb-10 01:30N 25°56' W 079°36'1121.3
2018-Feb-10 01:00N 25°46' W 079°38'1121.1
2018-Feb-10 00:30N 25°36' W 079°40'1221.2
2018-Feb-09 23:57N 25°24' W 079°40'49620.3
2018-Feb-08 23:30N 20°34' W 086°57'3 0.7
2018-Feb-08 19:30N 20°31' W 086°57'0 0.0
2018-Feb-08 15:00N 20°31' W 086°57'9 4.7
2018-Feb-08 13:00N 20°39' W 086°53'  

Dump ship's entire track history